createdAt,value
2018-02-03T00:01:10.700Z,82.20
2018-02-03T00:03:38.235Z,82.20
2018-02-03T00:06:05.777Z,82.40
2018-02-03T00:08:33.349Z,82.60
2018-02-03T00:11:00.921Z,82.60
2018-02-03T00:13:28.488Z,82.80
2018-02-03T00:15:56.788Z,82.60
2018-02-03T00:18:24.412Z,82.60
2018-02-03T00:20:52.796Z,82.70
2018-02-03T00:23:20.357Z,82.60
2018-02-03T00:25:47.908Z,82.80
2018-02-03T00:28:15.487Z,82.40
2018-02-03T00:30:43.070Z,82.60
2018-02-03T00:33:10.640Z,82.70
2018-02-03T00:35:38.240Z,82.40
2018-02-03T00:38:05.814Z,82.00
2018-02-03T00:40:33.400Z,81.90
2018-02-03T00:43:01.774Z,82.20
2018-02-03T00:45:29.334Z,82.10
2018-02-03T00:47:56.911Z,82.10
2018-02-03T00:50:24.460Z,82.00
2018-02-03T00:52:52.014Z,81.90
2018-02-03T00:55:19.584Z,81.90
2018-02-03T00:57:47.199Z,81.90
2018-02-03T01:00:14.752Z,81.50
2018-02-03T01:02:42.309Z,81.80
2018-02-03T01:05:09.885Z,82.30
2018-02-03T01:07:37.458Z,82.60
2018-02-03T01:10:04.988Z,82.20
2018-02-03T01:12:32.769Z,82.30
2018-02-03T01:15:00.311Z,82.20
2018-02-03T01:17:27.938Z,82.30
2018-02-03T01:19:55.495Z,83.00
2018-02-03T01:22:23.813Z,84.10
2018-02-03T01:24:51.390Z,84.10
2018-02-03T01:27:18.939Z,84.10
2018-02-03T01:29:47.268Z,85.40
2018-02-03T01:32:15.572Z,85.90
2018-02-03T01:34:43.150Z,85.90
2018-02-03T01:37:10.684Z,86.30
2018-02-03T01:39:38.263Z,86.80
2018-02-03T01:42:05.954Z,87.20
2018-02-03T01:44:33.513Z,87.40
2018-02-03T01:47:01.070Z,87.50
2018-02-03T01:49:28.623Z,87.70
2018-02-03T01:51:56.946Z,87.70
2018-02-03T01:54:24.511Z,87.60
2018-02-03T01:56:52.053Z,87.60
2018-02-03T01:59:20.377Z,87.90
2018-02-03T02:01:47.935Z,87.90
2018-02-03T02:04:15.527Z,88.60
2018-02-03T02:06:43.060Z,88.80
2018-02-03T02:09:11.400Z,89.50
2018-02-03T02:11:38.933Z,89.40
2018-02-03T02:14:07.270Z,90.10
2018-02-03T02:16:34.808Z,90.10
2018-02-03T02:19:02.388Z,90.30
2018-02-03T02:21:29.919Z,90.60
2018-02-03T02:23:57.474Z,90.30
2018-02-03T02:26:25.037Z,90.70
2018-02-03T02:28:52.595Z,90.40
2018-02-03T02:31:20.132Z,90.40
2018-02-03T02:33:47.691Z,90.20
2018-02-03T02:36:15.263Z,90.10
2018-02-03T02:38:43.571Z,90.10
2018-02-03T02:41:11.129Z,90.10
2018-02-03T02:43:39.442Z,90.20
2018-02-03T02:46:07.006Z,90.20
2018-02-03T02:48:34.578Z,90.20
2018-02-03T02:51:02.144Z,90.10
2018-02-03T02:53:29.682Z,89.90
2018-02-03T02:55:57.249Z,89.90
2018-02-03T02:58:24.805Z,90.10
2018-02-03T03:00:52.410Z,90.20
2018-02-03T03:03:19.939Z,90.50
2018-02-03T03:05:47.504Z,90.20
2018-02-03T03:08:15.038Z,90.20
2018-02-03T03:10:43.364Z,90.50
2018-02-03T03:13:10.914Z,90.50
2018-02-03T03:15:38.474Z,90.50
2018-02-03T03:18:06.777Z,90.50
2018-02-03T03:20:34.420Z,90.50
2018-02-03T03:23:01.970Z,90.50
2018-02-03T03:25:29.538Z,90.40
2018-02-03T03:27:57.075Z,90.30
2018-02-03T03:30:24.667Z,90.30
2018-02-03T03:32:52.234Z,90.20
2018-02-03T03:35:19.806Z,90.30
2018-02-03T03:37:47.358Z,90.30
2018-02-03T03:40:14.956Z,90.50
2018-02-03T03:42:42.494Z,90.50
2018-02-03T03:45:10.835Z,90.20
2018-02-03T03:47:38.377Z,90.20
2018-02-03T03:50:05.953Z,90.60
2018-02-03T03:52:33.483Z,90.50
2018-02-03T03:55:01.055Z,90.50
2018-02-03T03:57:28.583Z,90.50
2018-02-03T03:59:56.110Z,90.50
2018-02-03T04:02:24.457Z,90.50
2018-02-03T04:04:52.003Z,90.50
2018-02-03T04:07:19.592Z,90.50
2018-02-03T04:09:47.127Z,90.50
2018-02-03T04:12:14.684Z,90.50
2018-02-03T04:14:42.996Z,90.30
2018-02-03T04:17:10.549Z,90.30
2018-02-03T04:19:38.946Z,90.30
2018-02-03T04:22:07.262Z,90.30
2018-02-03T04:24:34.797Z,90.30
2018-02-03T04:27:03.115Z,90.40
2018-02-03T04:29:30.646Z,90.30
2018-02-03T04:31:58.223Z,90.20
2018-02-03T04:34:25.764Z,90.10
2018-02-03T04:36:53.316Z,90.40
2018-02-03T04:39:20.862Z,89.80
2018-02-03T04:41:49.194Z,89.80
2018-02-03T04:44:16.735Z,89.80
2018-02-03T04:46:44.282Z,89.90
2018-02-03T04:49:11.811Z,90.00
2018-02-03T04:51:39.372Z,90.40
2018-02-03T04:54:06.912Z,90.50
2018-02-03T04:56:35.234Z,90.50
2018-02-03T04:59:03.066Z,90.50
2018-02-03T05:01:31.409Z,90.50
2018-02-03T05:03:58.947Z,90.50
2018-02-03T05:06:26.489Z,90.50
2018-02-03T05:08:54.058Z,90.90
2018-02-03T05:11:21.601Z,91.30
2018-02-03T05:13:49.164Z,91.60
2018-02-03T05:16:16.695Z,92.00
2018-02-03T05:18:45.028Z,92.20
2018-02-03T05:21:12.575Z,92.40
2018-02-03T05:23:40.140Z,92.30
2018-02-03T05:26:07.678Z,92.30
2018-02-03T05:28:35.234Z,92.40
2018-02-03T05:31:02.770Z,92.60
2018-02-03T05:33:30.341Z,92.60
2018-02-03T05:35:57.881Z,92.30
2018-02-03T05:38:27.124Z,92.60
2018-02-03T05:40:54.659Z,92.40
2018-02-03T05:43:23.004Z,92.50
2018-02-03T05:45:50.550Z,92.30
2018-02-03T05:48:18.103Z,92.20
2018-02-03T05:50:46.406Z,92.30
2018-02-03T05:53:14.722Z,92.40
2018-02-03T05:55:42.263Z,92.40
2018-02-03T05:58:10.584Z,92.40
2018-02-03T06:00:38.118Z,92.40
2018-02-03T06:03:06.443Z,92.50
2018-02-03T06:05:33.979Z,92.50
2018-02-03T06:08:02.302Z,92.80
2018-02-03T06:10:29.842Z,92.80
2018-02-03T06:12:58.168Z,93.00
2018-02-03T06:15:25.698Z,93.00
2018-02-03T06:17:54.027Z,93.20
2018-02-03T06:20:21.554Z,93.20
2018-02-03T06:22:49.880Z,93.30
2018-02-03T06:25:17.414Z,93.40
2018-02-03T06:27:44.980Z,93.40
2018-02-03T06:30:12.511Z,93.60
2018-02-03T06:32:40.079Z,93.60
2018-02-03T06:35:07.620Z,93.60
2018-02-03T06:37:35.946Z,93.40
2018-02-03T06:40:03.490Z,93.40
2018-02-03T06:42:31.024Z,93.70
2018-02-03T06:44:58.594Z,93.40
2018-02-03T06:47:26.123Z,93.40
2018-02-03T06:49:53.679Z,93.40
2018-02-03T06:52:21.220Z,93.40
2018-02-03T06:54:48.771Z,93.40
2018-02-03T06:57:16.311Z,93.40
2018-02-03T06:59:43.876Z,93.40
2018-02-03T07:02:11.406Z,93.50
2018-02-03T07:04:38.957Z,93.50
2018-02-03T07:07:06.492Z,93.50
2018-02-03T07:09:34.047Z,93.50
2018-02-03T07:12:02.354Z,92.80
2018-02-03T07:14:29.914Z,92.80
2018-02-03T07:16:58.211Z,92.90
2018-02-03T07:19:25.765Z,92.90
2018-02-03T07:21:54.054Z,92.60
2018-02-03T07:24:22.374Z,92.70
2018-02-03T07:26:49.920Z,92.70
2018-02-03T07:29:18.238Z,92.80
2018-02-03T07:31:45.770Z,92.80
2018-02-03T07:34:13.483Z,92.80
2018-02-03T07:36:41.010Z,92.70
2018-02-03T07:39:08.590Z,92.80
2018-02-03T07:41:36.120Z,92.70
2018-02-03T07:44:03.655Z,92.60
2018-02-03T07:46:32.170Z,92.20
2018-02-03T07:48:59.704Z,92.10
2018-02-03T07:51:28.027Z,92.00
2018-02-03T07:53:55.563Z,92.00
2018-02-03T07:56:23.120Z,92.00
2018-02-03T07:58:50.662Z,92.00
2018-02-03T08:01:18.217Z,92.00
2018-02-03T08:03:45.747Z,92.00
2018-02-03T08:06:13.313Z,91.80
2018-02-03T08:08:40.854Z,91.70
2018-02-03T08:11:08.447Z,91.20
2018-02-03T08:13:35.969Z,91.30
2018-02-03T08:16:03.545Z,90.90
2018-02-03T08:18:31.081Z,90.70
2018-02-03T08:20:58.648Z,90.80
2018-02-03T08:23:26.209Z,90.60
2018-02-03T08:25:53.755Z,90.50
2018-02-03T08:28:21.289Z,90.10
2018-02-03T08:30:49.606Z,90.50
2018-02-03T08:33:17.143Z,90.50
2018-02-03T08:35:45.467Z,89.50
2018-02-03T08:38:13.052Z,89.50
2018-02-03T08:40:40.622Z,89.60
2018-02-03T08:43:08.271Z,89.20
2018-02-03T08:45:35.824Z,88.10
2018-02-03T08:48:05.399Z,88.40
2018-02-03T08:50:32.999Z,88.40
2018-02-03T08:53:00.581Z,87.10
2018-02-03T08:55:28.112Z,87.60
2018-02-03T08:57:55.684Z,87.60
2018-02-03T09:00:23.207Z,87.50
2018-02-03T09:02:51.516Z,86.80
2018-02-03T09:05:19.059Z,86.80
2018-02-03T09:07:47.379Z,86.20
2018-02-03T09:10:14.911Z,85.60
2018-02-03T09:12:42.464Z,85.60
2018-02-03T09:15:10.012Z,85.20
2018-02-03T09:17:37.569Z,84.30
2018-02-03T09:20:05.099Z,84.90
2018-02-03T09:22:32.684Z,84.30
2018-02-03T09:25:00.988Z,84.50
2018-02-03T09:27:28.557Z,84.50
2018-02-03T09:29:57.527Z,83.40
2018-02-03T09:32:25.077Z,83.30
2018-02-03T09:34:52.614Z,83.00
2018-02-03T09:37:20.171Z,83.50
2018-02-03T09:39:48.459Z,82.30
2018-02-03T09:42:16.775Z,83.10
2018-02-03T09:44:44.312Z,83.10
2018-02-03T09:47:12.634Z,83.30
2018-02-03T09:49:40.178Z,82.60
2018-02-03T09:52:08.516Z,81.70
2018-02-03T09:54:36.050Z,81.50
2018-02-03T09:57:05.243Z,81.50
2018-02-03T09:59:32.772Z,81.50
2018-02-03T10:02:00.337Z,81.40
2018-02-03T10:04:27.875Z,81.30
2018-02-03T10:06:56.166Z,81.40
2018-02-03T10:09:24.495Z,80.10
2018-02-03T10:11:52.043Z,80.10
2018-02-03T10:14:19.603Z,80.10
2018-02-03T10:16:47.907Z,79.80
2018-02-03T10:19:15.483Z,79.80
2018-02-03T10:21:43.054Z,79.90
2018-02-03T10:24:10.620Z,79.90
2018-02-03T10:26:38.175Z,79.50
2018-02-03T10:29:06.499Z,79.30
2018-02-03T10:31:34.316Z,79.30
2018-02-03T10:34:02.798Z,80.20
2018-02-03T10:36:30.337Z,80.00
2018-02-03T10:38:57.897Z,79.20
2018-02-03T10:41:25.447Z,79.50
2018-02-03T10:43:53.011Z,79.30
2018-02-03T10:46:20.539Z,78.00
2018-02-03T10:48:48.097Z,78.10
2018-02-03T10:51:15.639Z,78.00
2018-02-03T10:53:43.954Z,78.00
2018-02-03T10:56:12.065Z,78.00
2018-02-03T10:58:39.629Z,77.90
2018-02-03T11:01:09.808Z,78.10
2018-02-03T11:03:37.362Z,78.80
2018-02-03T11:06:04.895Z,79.50
2018-02-03T11:08:32.446Z,78.20
2018-02-03T11:11:00.736Z,78.10
2018-02-03T11:13:29.052Z,77.60
2018-02-03T11:15:56.591Z,77.60
2018-02-03T11:18:24.912Z,76.80
2018-02-03T11:20:52.442Z,76.80
2018-02-03T11:23:20.050Z,76.90
2018-02-03T11:25:47.662Z,76.90
2018-02-03T11:28:15.244Z,76.90
2018-02-03T11:30:42.790Z,77.20
2018-02-03T11:33:10.353Z,78.00
2018-02-03T11:35:37.918Z,77.20
2018-02-03T11:38:05.453Z,77.10
2018-02-03T11:40:33.828Z,76.60
2018-02-03T11:43:02.152Z,77.10
2018-02-03T11:45:29.721Z,77.10
2018-02-03T11:47:58.030Z,76.40
2018-02-03T11:50:25.633Z,76.40
2018-02-03T11:52:53.299Z,76.50
2018-02-03T11:55:20.850Z,76.50
2018-02-03T11:57:48.493Z,76.50
2018-02-03T12:00:16.935Z,76.60
2018-02-03T12:02:44.514Z,76.50
2018-02-03T12:05:12.116Z,76.40
2018-02-03T12:07:39.662Z,76.10
2018-02-03T12:10:07.220Z,75.90
2018-02-03T12:12:34.766Z,76.10
2018-02-03T12:15:02.326Z,76.60
2018-02-03T12:17:30.642Z,77.50
2018-02-03T12:19:58.221Z,77.40
2018-02-03T12:22:25.787Z,77.00
2018-02-03T12:24:53.376Z,77.80
2018-02-03T12:27:21.673Z,78.00
2018-02-03T12:29:50.031Z,78.00
2018-02-03T12:32:17.563Z,77.80
2018-02-03T12:34:45.116Z,78.50
2018-02-03T12:37:12.676Z,78.70
2018-02-03T12:39:40.218Z,79.60
2018-02-03T12:42:07.809Z,79.80
2018-02-03T12:44:35.405Z,78.80
2018-02-03T12:47:02.936Z,77.80
2018-02-03T12:49:30.492Z,77.90
2018-02-03T12:51:58.839Z,78.40
2018-02-03T12:54:26.382Z,78.40
2018-02-03T12:56:53.958Z,78.60
2018-02-03T12:59:21.486Z,78.50
2018-02-03T13:01:49.799Z,77.60
2018-02-03T13:04:18.096Z,77.80
2018-02-03T13:06:45.656Z,77.80
2018-02-03T13:09:13.949Z,77.30
2018-02-03T13:11:41.493Z,77.30
2018-02-03T13:14:09.014Z,77.00
2018-02-03T13:16:36.565Z,77.60
2018-02-03T13:19:04.524Z,77.60
2018-02-03T13:21:32.084Z,77.60
2018-02-03T13:23:59.608Z,77.60
2018-02-03T13:26:27.159Z,77.70
2018-02-03T13:28:55.469Z,77.70
2018-02-03T13:31:22.998Z,77.70
2018-02-03T13:33:50.551Z,77.80
2018-02-03T13:36:18.189Z,77.70
2018-02-03T13:38:45.722Z,77.70
2018-02-03T13:41:14.047Z,77.70
2018-02-03T13:43:41.587Z,77.70
2018-02-03T13:46:09.898Z,77.90
2018-02-03T13:48:37.416Z,77.90
2018-02-03T13:51:04.962Z,78.50
2018-02-03T13:53:32.507Z,78.40
2018-02-03T13:56:00.053Z,77.60
2018-02-03T13:58:27.634Z,77.70
2018-02-03T14:00:55.174Z,78.40
2018-02-03T14:03:22.697Z,77.80
2018-02-03T14:05:50.229Z,77.80
2018-02-03T14:08:17.753Z,77.70
2018-02-03T14:10:45.286Z,77.70
2018-02-03T14:13:12.825Z,77.90
2018-02-03T14:15:40.336Z,78.00
2018-02-03T14:18:08.663Z,77.70
2018-02-03T14:20:36.177Z,77.70
2018-02-03T14:23:03.722Z,77.60
2018-02-03T14:25:31.259Z,76.90
2018-02-03T14:27:58.815Z,77.30
2018-02-03T14:30:27.120Z,77.30
2018-02-03T14:32:54.690Z,77.20
2018-02-03T14:35:22.225Z,77.40
2018-02-03T14:37:49.780Z,77.40
2018-02-03T14:40:17.305Z,77.50
2018-02-03T14:45:18.805Z,77.60
2018-02-03T14:47:46.365Z,77.60
2018-02-03T14:50:14.713Z,77.60
2018-02-03T14:52:42.262Z,77.60
2018-02-03T14:55:09.795Z,77.50
2018-02-03T14:57:38.119Z,77.50
2018-02-03T15:00:05.653Z,77.50
2018-02-03T15:02:33.978Z,77.50
2018-02-03T15:05:01.522Z,77.50
2018-02-03T15:07:29.846Z,77.60
2018-02-03T15:09:57.368Z,77.60
2018-02-03T15:12:24.900Z,76.90
2018-02-03T15:14:52.443Z,76.50
2018-02-03T15:17:19.988Z,76.20
2018-02-03T15:19:48.285Z,75.30
2018-02-03T15:22:16.593Z,75.20
2018-02-03T15:24:44.360Z,75.20
2018-02-03T15:27:12.670Z,75.70
2018-02-03T15:29:40.217Z,75.70
2018-02-03T15:32:08.535Z,76.10
2018-02-03T15:34:36.076Z,76.10
2018-02-03T15:37:04.395Z,77.30
2018-02-03T15:39:32.297Z,77.20
2018-02-03T15:42:00.661Z,76.90
2018-02-03T15:44:28.224Z,76.90
2018-02-03T15:46:55.791Z,76.90
2018-02-03T15:49:24.136Z,76.70
2018-02-03T15:51:51.804Z,76.70
2018-02-03T15:54:19.396Z,76.80
2018-02-03T15:56:47.028Z,76.20
2018-02-03T15:59:14.581Z,75.50
2018-02-03T16:01:42.133Z,76.10
2018-02-03T16:04:09.724Z,75.90
2018-02-03T16:06:37.315Z,75.30
2018-02-03T16:09:04.907Z,75.00
2018-02-03T16:11:32.567Z,74.70
2018-02-03T16:14:01.049Z,74.80
2018-02-03T16:16:28.624Z,74.80
2018-02-03T16:18:56.631Z,74.90
2018-02-03T16:21:24.193Z,75.20
2018-02-03T16:23:51.776Z,75.10
2018-02-03T16:26:19.319Z,75.20
2018-02-03T16:28:47.062Z,75.70
2018-02-03T16:31:15.292Z,76.10
2018-02-03T16:33:42.822Z,76.10
2018-02-03T16:36:10.568Z,75.90
2018-02-03T16:38:38.154Z,76.50
2018-02-03T16:41:05.882Z,76.80
2018-02-03T16:43:33.456Z,77.20
2018-02-03T16:46:01.024Z,77.60
2018-02-03T16:48:28.567Z,78.20
2018-02-03T16:50:56.915Z,78.80
2018-02-03T16:53:24.454Z,78.80
2018-02-03T16:55:52.015Z,79.00
2018-02-03T16:58:20.361Z,79.20
2018-02-03T17:00:47.931Z,79.20
2018-02-03T17:03:15.460Z,79.40
2018-02-03T17:05:43.096Z,79.30
2018-02-03T17:08:10.645Z,79.00
2018-02-03T17:10:38.338Z,79.40
2018-02-03T17:13:06.670Z,79.80
2018-02-03T17:15:34.231Z,79.80
2018-02-03T17:18:01.762Z,79.70
2018-02-03T17:20:29.335Z,80.10
2018-02-03T17:22:57.641Z,80.40
2018-02-03T17:25:25.195Z,80.30
2018-02-03T17:27:52.726Z,80.10
2018-02-03T17:30:20.288Z,80.60
2018-02-03T17:32:48.034Z,80.50
2018-02-03T17:35:15.609Z,80.40
2018-02-03T17:37:48.962Z,80.50
2018-02-03T17:40:16.649Z,80.40
2018-02-03T17:42:44.210Z,80.60
2018-02-03T17:45:17.743Z,80.50
2018-02-03T17:47:45.582Z,80.50
2018-02-03T17:50:13.203Z,80.70
2018-02-03T17:52:40.790Z,80.70
2018-02-03T17:55:08.350Z,80.70
2018-02-03T17:57:41.671Z,80.60
2018-02-03T18:00:09.465Z,80.40
2018-02-03T18:02:38.070Z,79.70
2018-02-03T18:05:06.025Z,79.70
2018-02-03T18:07:33.712Z,79.80
2018-02-03T18:10:02.183Z,79.80
2018-02-03T18:12:29.937Z,79.80
2018-02-03T18:14:57.785Z,79.80
2018-02-03T18:17:25.728Z,80.10
2018-02-03T18:19:53.415Z,79.70
2018-02-03T18:22:21.112Z,79.80
2018-02-03T18:24:48.749Z,79.40
2018-02-03T18:27:17.172Z,79.30
2018-02-03T18:29:45.770Z,79.10
2018-02-03T18:32:14.135Z,79.30
2018-02-03T18:34:42.692Z,79.30
2018-02-03T18:37:10.586Z,79.00
2018-02-03T18:39:38.289Z,78.50
2018-02-03T18:42:07.584Z,78.60
2018-02-03T18:44:35.123Z,78.50
2018-02-03T18:47:02.799Z,78.70
2018-02-03T18:49:30.344Z,78.90
2018-02-03T18:51:57.998Z,78.90
2018-02-03T18:54:25.708Z,79.40
2018-02-03T18:56:53.420Z,79.40
2018-02-03T18:59:21.193Z,79.60
2018-02-03T19:01:48.847Z,79.30
2018-02-03T19:04:16.415Z,79.40
2018-02-03T19:06:44.022Z,79.80
2018-02-03T19:09:11.608Z,79.70
2018-02-03T19:11:39.272Z,80.00
2018-02-03T19:14:07.037Z,80.00
2018-02-03T19:16:34.790Z,80.00
2018-02-03T19:19:02.425Z,80.00
2018-02-03T19:21:30.087Z,79.30
2018-02-03T19:23:57.913Z,79.30
2018-02-03T19:26:25.649Z,79.90
2018-02-03T19:28:53.482Z,79.90
2018-02-03T19:31:21.151Z,79.60
2018-02-03T19:33:48.881Z,79.90
2018-02-03T19:36:16.596Z,79.90
2018-02-03T19:38:44.508Z,80.00
2018-02-03T19:41:12.179Z,80.30
2018-02-03T19:43:39.966Z,80.50
2018-02-03T19:46:07.647Z,80.80
2018-02-03T19:48:36.444Z,81.00
2018-02-03T19:51:04.147Z,81.10
2018-02-03T19:53:32.221Z,81.50
2018-02-03T19:56:00.693Z,81.60
2018-02-03T19:58:28.426Z,81.60
2018-02-03T20:00:56.029Z,81.80
2018-02-03T20:03:23.725Z,82.00
2018-02-03T20:05:51.306Z,82.40
2018-02-03T20:08:18.932Z,82.20
2018-02-03T20:10:46.509Z,82.60
2018-02-03T20:13:14.277Z,82.30
2018-02-03T20:15:41.932Z,82.10
2018-02-03T20:18:09.601Z,81.80
2018-02-03T20:20:37.997Z,81.60
2018-02-03T20:23:05.705Z,81.60
2018-02-03T20:25:33.282Z,81.80
2018-02-03T20:28:01.188Z,81.70
2018-02-03T20:30:28.845Z,81.50
2018-02-03T20:32:56.490Z,80.70
2018-02-03T20:35:24.194Z,79.90
2018-02-03T20:37:51.845Z,79.90
2018-02-03T20:40:19.571Z,79.90
2018-02-03T20:42:47.315Z,79.70
2018-02-03T20:45:14.930Z,79.50
2018-02-03T20:47:42.619Z,79.30
2018-02-03T20:50:10.261Z,79.60
2018-02-03T20:52:38.089Z,79.50
2018-02-03T20:55:06.085Z,79.50
2018-02-03T20:57:33.640Z,79.90
2018-02-03T21:00:02.126Z,79.80
2018-02-03T21:02:30.445Z,79.00
2018-02-03T21:04:58.047Z,79.40
2018-02-03T21:07:25.898Z,79.20
2018-02-03T21:09:53.645Z,79.10
2018-02-03T21:12:23.032Z,79.10
2018-02-03T21:14:50.812Z,79.10
2018-02-03T21:17:18.477Z,79.20
2018-02-03T21:19:46.348Z,78.80
2018-02-03T21:22:14.017Z,78.90
2018-02-03T21:24:42.023Z,78.80
2018-02-03T21:27:09.666Z,78.30
2018-02-03T21:29:37.521Z,78.20
2018-02-03T21:32:05.582Z,78.10
2018-02-03T21:34:34.072Z,78.80
2018-02-03T21:37:02.439Z,78.30
2018-02-03T21:39:30.146Z,78.30
2018-02-03T21:41:57.769Z,78.40
2018-02-03T21:44:25.465Z,78.20
2018-02-03T21:46:53.049Z,77.90
2018-02-03T21:49:21.399Z,78.10
2018-02-03T21:51:48.993Z,77.90
2018-02-03T21:54:16.592Z,77.30
2018-02-03T21:56:44.143Z,77.50
2018-02-03T21:59:11.828Z,77.70
2018-02-03T22:01:39.446Z,77.70
2018-02-03T22:04:07.840Z,77.30
2018-02-03T22:06:36.150Z,77.30
2018-02-03T22:09:03.718Z,77.30
2018-02-03T22:11:31.513Z,77.40
2018-02-03T22:13:59.102Z,77.40
2018-02-03T22:16:26.647Z,77.70
2018-02-03T22:18:54.200Z,77.60
2018-02-03T22:21:22.526Z,77.70
2018-02-03T22:23:50.099Z,77.60
2018-02-03T22:26:17.643Z,77.70
2018-02-03T22:28:45.176Z,78.10
2018-02-03T22:31:12.726Z,78.20
2018-02-03T22:33:40.269Z,78.30
2018-02-03T22:36:07.827Z,78.20
2018-02-03T22:38:35.349Z,78.10
2018-02-03T22:41:02.908Z,78.50
2018-02-03T22:43:30.464Z,78.60
2018-02-03T22:45:58.036Z,78.90
2018-02-03T22:48:25.584Z,79.10
2018-02-03T22:50:53.177Z,79.60
2018-02-03T22:53:20.756Z,79.40
2018-02-03T22:55:48.323Z,79.80
2018-02-03T22:58:15.886Z,80.10
2018-02-03T23:00:49.345Z,80.40
2018-02-03T23:03:16.970Z,80.70
2018-02-03T23:05:44.539Z,81.20
2018-02-03T23:08:12.097Z,81.70
2018-02-03T23:10:40.385Z,82.70
2018-02-03T23:13:08.767Z,83.40
2018-02-03T23:15:37.099Z,84.00
2018-02-03T23:18:04.672Z,83.90
2018-02-03T23:20:32.180Z,84.30
2018-02-03T23:22:59.772Z,85.00
2018-02-03T23:25:28.128Z,86.10
2018-02-03T23:27:56.542Z,86.70
2018-02-03T23:30:24.847Z,86.90
2018-02-03T23:32:53.271Z,87.40
2018-02-03T23:35:20.845Z,87.40
2018-02-03T23:37:48.448Z,87.70
2018-02-03T23:40:16.949Z,88.60
2018-02-03T23:42:44.585Z,89.20
2018-02-03T23:45:12.184Z,89.30
2018-02-03T23:47:39.846Z,89.60
2018-02-03T23:50:07.391Z,90.20
2018-02-03T23:52:35.055Z,90.20
2018-02-03T23:55:03.371Z,90.40
2018-02-03T23:57:30.999Z,90.40
2018-02-03T23:59:58.562Z,90.70
